createdAt,value
2023-01-19T00:00:48.889Z,93.54
2023-01-19T00:05:52.752Z,93.34
2023-01-19T00:10:56.277Z,93.36
2023-01-19T00:16:01.326Z,93.42
2023-01-19T00:21:04.195Z,93.06
2023-01-19T00:26:14.129Z,93.89
2023-01-19T00:31:22.109Z,93.82
2023-01-19T00:36:27.321Z,93.07
2023-01-19T00:41:44.161Z,93.68
2023-01-19T00:46:48.501Z,93.50
2023-01-19T00:51:51.575Z,93.34
2023-01-19T00:56:55.059Z,93.56
2023-01-19T01:02:03.681Z,93.32
2023-01-19T01:07:08.649Z,93.58
2023-01-19T01:12:11.928Z,93.39
2023-01-19T01:17:18.254Z,93.23
2023-01-19T01:22:21.063Z,93.06
2023-01-19T01:27:24.554Z,93.36
2023-01-19T01:32:31.315Z,93.24
2023-01-19T01:37:36.452Z,93.54
2023-01-19T01:42:41.061Z,93.47
2023-01-19T01:47:57.548Z,93.32
2023-01-19T01:53:07.639Z,93.18
2023-01-19T01:58:12.911Z,93.46
2023-01-19T02:03:18.686Z,93.38
2023-01-19T02:08:46.953Z,93.44
2023-01-19T02:13:50.958Z,93.47
2023-01-19T02:18:55.365Z,93.76
2023-01-19T02:24:04.368Z,93.77
2023-01-19T02:29:11.450Z,93.34
2023-01-19T02:34:18.288Z,93.60
2023-01-19T02:39:28.723Z,93.35
2023-01-19T02:44:34.429Z,93.35
2023-01-19T02:49:39.072Z,94.19
2023-01-19T02:54:57.774Z,93.75
2023-01-19T03:00:13.708Z,93.79
2023-01-19T03:05:31.396Z,94.05
2023-01-19T03:10:45.386Z,93.81
2023-01-19T03:15:51.526Z,94.12
2023-01-19T03:20:59.440Z,93.90
2023-01-19T03:26:06.990Z,93.61
2023-01-19T03:31:17.780Z,93.46
2023-01-19T03:36:26.025Z,93.65
2023-01-19T03:41:34.358Z,93.25
2023-01-19T03:46:39.143Z,93.71
2023-01-19T03:51:42.399Z,94.22
2023-01-19T03:56:54.164Z,93.81
2023-01-19T04:02:15.569Z,93.46
2023-01-19T04:07:20.631Z,93.64
2023-01-19T04:12:46.186Z,93.29
2023-01-19T04:25:03.640Z,93.75
2023-01-19T04:30:13.440Z,93.36
2023-01-19T04:35:32.447Z,93.39
2023-01-19T04:40:51.394Z,93.74
2023-01-19T04:46:11.906Z,93.27
2023-01-19T04:51:15.286Z,93.22
2023-01-19T04:56:20.839Z,92.99
2023-01-19T05:01:40.681Z,93.71
2023-01-19T05:06:46.859Z,93.20
2023-01-19T05:11:55.650Z,93.44
2023-01-19T05:17:05.139Z,93.49
2023-01-19T05:22:10.367Z,93.42
2023-01-19T05:27:14.894Z,93.34
2023-01-19T05:32:21.230Z,92.79
2023-01-19T05:37:27.618Z,92.95
2023-01-19T05:42:39.284Z,93.28
2023-01-19T05:47:48.335Z,93.08
2023-01-19T05:52:54.085Z,92.70
2023-01-19T05:57:57.110Z,92.79
2023-01-19T06:03:02.657Z,92.82
2023-01-19T06:08:06.557Z,92.55
2023-01-19T06:13:11.509Z,93.02
2023-01-19T06:18:16.430Z,92.70
2023-01-19T06:23:21.839Z,92.71
2023-01-19T06:28:26.040Z,93.04
2023-01-19T06:33:30.461Z,92.91
2023-01-19T06:38:33.708Z,92.47
2023-01-19T06:43:37.465Z,92.32
2023-01-19T06:48:42.154Z,92.20
2023-01-19T06:53:47.310Z,92.75
2023-01-19T06:58:50.610Z,92.52
2023-01-19T07:03:54.906Z,92.28
2023-01-19T07:09:01.057Z,92.58
2023-01-19T07:14:04.162Z,92.60
2023-01-19T07:19:11.050Z,92.01
2023-01-19T07:24:14.085Z,92.29
2023-01-19T07:29:16.837Z,92.09
2023-01-19T07:34:23.177Z,92.08
2023-01-19T07:39:27.440Z,92.37
2023-01-19T07:49:48.763Z,92.43
2023-01-19T07:54:52.078Z,92.43
2023-01-19T07:59:55.279Z,92.54
2023-01-19T08:05:01.669Z,92.27
2023-01-19T08:10:05.039Z,92.31
2023-01-19T08:15:16.657Z,92.70
2023-01-19T08:20:24.279Z,92.63
2023-01-19T08:31:05.327Z,92.63
2023-01-19T08:36:17.259Z,92.46
2023-01-19T08:41:19.826Z,92.47
2023-01-19T08:46:23.747Z,92.33
2023-01-19T08:51:26.450Z,92.34
2023-01-19T08:56:29.730Z,92.45
2023-01-19T09:01:33.678Z,92.17
2023-01-19T09:06:36.346Z,92.06
2023-01-19T09:11:38.860Z,92.38
2023-01-19T09:16:43.302Z,92.15
2023-01-19T09:21:45.806Z,92.06
2023-01-19T09:26:48.308Z,92.31
2023-01-19T09:31:52.246Z,92.11
2023-01-19T09:36:55.023Z,91.74
2023-01-19T09:42:06.776Z,91.94
2023-01-19T09:47:17.518Z,91.46
2023-01-19T09:52:20.611Z,91.05
2023-01-19T09:57:23.623Z,90.97
2023-01-19T10:02:37.298Z,90.67
2023-01-19T10:07:58.120Z,91.01
2023-01-19T10:13:16.890Z,90.90
2023-01-19T10:18:26.412Z,90.52
2023-01-19T10:23:42.307Z,90.66
2023-01-19T10:28:48.015Z,90.44
2023-01-19T10:33:52.232Z,90.37
2023-01-19T10:38:54.836Z,89.74
2023-01-19T10:44:02.869Z,89.13
2023-01-19T10:49:07.688Z,89.29
2023-01-19T10:54:14.152Z,89.10
2023-01-19T10:59:31.978Z,89.18
2023-01-19T11:04:35.809Z,88.92
2023-01-19T11:09:38.283Z,89.47
2023-01-19T11:14:40.880Z,88.96
2023-01-19T11:19:53.134Z,88.45
2023-01-19T11:25:03.155Z,88.67
2023-01-19T11:30:15.839Z,89.01
2023-01-19T11:35:38.613Z,88.49
2023-01-19T11:40:42.859Z,89.10
2023-01-19T11:45:46.856Z,89.10
2023-01-19T11:50:51.264Z,89.06
2023-01-19T11:55:58.535Z,89.28
2023-01-19T12:01:06.162Z,88.74
2023-01-19T12:06:13.430Z,88.73
2023-01-19T12:11:20.094Z,89.19
2023-01-19T12:16:23.907Z,88.26
2023-01-19T12:21:27.812Z,88.97
2023-01-19T12:26:36.702Z,88.67
2023-01-19T12:31:42.767Z,88.39
2023-01-19T12:36:46.748Z,88.36
2023-01-19T12:41:51.012Z,88.38
2023-01-19T12:46:57.309Z,88.31
2023-01-19T12:52:30.686Z,88.32
2023-01-19T12:57:36.571Z,88.59
2023-01-19T13:02:44.388Z,89.05
2023-01-19T13:08:23.529Z,88.06
2023-01-19T13:13:28.014Z,87.86
2023-01-19T13:18:35.029Z,87.86
2023-01-19T13:29:11.703Z,88.71
2023-01-19T13:34:17.743Z,88.46
2023-01-19T13:39:27.715Z,87.83
2023-01-19T13:44:37.252Z,88.38
2023-01-19T13:49:43.908Z,88.24
2023-01-19T13:54:51.253Z,88.64
2023-01-19T14:00:16.488Z,88.02
2023-01-19T14:05:23.941Z,88.21
2023-01-19T14:10:26.915Z,88.49
2023-01-19T14:15:34.764Z,88.69
2023-01-19T14:20:39.579Z,88.30
2023-01-19T14:25:46.216Z,88.71
2023-01-19T14:30:58.267Z,88.59
2023-01-19T14:36:10.677Z,88.88
2023-01-19T14:41:22.643Z,88.43
2023-01-19T14:46:47.800Z,88.82
2023-01-19T14:51:52.428Z,88.84
2023-01-19T14:56:57.327Z,88.83
2023-01-19T15:02:06.674Z,89.13
2023-01-19T15:07:18.447Z,89.35
2023-01-19T15:12:28.463Z,89.64
2023-01-19T15:17:34.105Z,89.14
2023-01-19T15:22:38.966Z,89.19
2023-01-19T15:27:42.510Z,89.29
2023-01-19T15:32:47.277Z,89.40
2023-01-19T15:37:51.859Z,89.64
2023-01-19T15:42:55.052Z,89.62
2023-01-19T15:48:00.004Z,89.96
2023-01-19T15:53:04.035Z,89.58
2023-01-19T15:58:08.959Z,90.06
2023-01-19T16:03:15.940Z,89.86
2023-01-19T16:08:20.037Z,90.33
2023-01-19T16:13:23.032Z,89.91
2023-01-19T16:18:28.807Z,90.44
2023-01-19T16:23:31.769Z,90.51
2023-01-19T16:28:35.753Z,90.54
2023-01-19T16:33:39.980Z,90.41
2023-01-19T16:38:43.226Z,90.85
2023-01-19T16:43:51.649Z,90.94
2023-01-19T16:49:01.568Z,90.80
2023-01-19T16:54:05.924Z,91.41
2023-01-19T16:59:11.941Z,91.52
2023-01-19T17:04:20.368Z,91.14
2023-01-19T17:09:23.316Z,91.57
2023-01-19T17:14:26.239Z,91.36
2023-01-19T17:19:35.813Z,91.52
2023-01-19T17:24:42.566Z,91.43
2023-01-19T17:29:52.704Z,91.58
2023-01-19T17:34:58.957Z,91.64
2023-01-19T17:40:04.457Z,91.62
2023-01-19T17:45:08.482Z,91.53
2023-01-19T17:50:14.794Z,91.78
2023-01-19T17:55:29.148Z,91.76
2023-01-19T18:00:33.025Z,91.83
2023-01-19T18:05:38.339Z,91.60
2023-01-19T18:10:42.896Z,91.27
2023-01-19T18:15:52.479Z,91.94
2023-01-19T18:20:59.571Z,92.27
2023-01-19T18:26:04.891Z,91.93
2023-01-19T18:31:09.520Z,91.75
2023-01-19T18:42:50.013Z,91.73
2023-01-19T18:47:53.387Z,92.20
2023-01-19T18:52:57.571Z,92.08
2023-01-19T18:58:05.693Z,92.55
2023-01-19T19:15:17.783Z,93.05
2023-01-19T19:40:02.663Z,93.59
2023-01-19T19:51:19.672Z,93.78
2023-01-19T19:56:28.440Z,94.31
2023-01-19T20:01:34.613Z,93.81
2023-01-19T20:06:41.815Z,94.37
2023-01-19T20:17:14.582Z,95.30
2023-01-19T20:22:19.965Z,95.62
2023-01-19T20:27:24.477Z,95.83
2023-01-19T20:32:27.704Z,96.04
2023-01-19T20:37:34.483Z,95.81
2023-01-19T20:42:41.698Z,95.23
2023-01-19T20:48:06.101Z,95.21
2023-01-19T20:53:18.951Z,95.19
2023-01-19T20:58:23.056Z,95.60
2023-01-19T21:03:29.846Z,95.18
2023-01-19T21:08:34.854Z,95.11
2023-01-19T21:13:38.860Z,95.44
2023-01-19T21:18:47.587Z,95.36
2023-01-19T21:24:04.945Z,95.46
2023-01-19T21:29:14.921Z,95.95
2023-01-19T21:34:28.506Z,95.57
2023-01-19T21:39:37.435Z,95.76
2023-01-19T21:44:41.835Z,95.51
2023-01-19T21:49:48.265Z,95.84
2023-01-19T21:54:53.045Z,96.09
2023-01-19T22:00:00.012Z,96.05
2023-01-19T22:05:03.371Z,96.35
2023-01-19T22:10:30.136Z,96.40
2023-01-19T22:15:39.502Z,96.18
2023-01-19T22:20:42.971Z,96.54
2023-01-19T22:25:48.868Z,96.27
2023-01-19T22:30:52.272Z,96.28
2023-01-19T22:35:56.115Z,96.58
2023-01-19T22:41:30.206Z,96.86
2023-01-19T22:52:21.331Z,96.66
2023-01-19T22:57:23.875Z,96.78
2023-01-19T23:02:26.339Z,96.94
2023-01-19T23:07:30.159Z,97.01
2023-01-19T23:12:32.646Z,97.20
2023-01-19T23:17:35.147Z,97.10
2023-01-19T23:22:39.769Z,97.14
2023-01-19T23:27:42.238Z,97.03
2023-01-19T23:32:48.209Z,97.13
2023-01-19T23:37:52.053Z,97.13
2023-01-19T23:42:55.838Z,97.07
2023-01-19T23:47:58.319Z,96.96
2023-01-19T23:53:02.128Z,96.95
2023-01-19T23:58:04.663Z,97.13
